Time;durP1;ratioP1;P1;durP2;ratioP2;P2;SDS_P1;SDS_P2;PMS_P1;PMS_P2;Temp;Humidity;BMP_temperature;BMP_pressure;BME280_temperature;BME280_humidity;BME280_pressure;Samples;Min_cycle;Max_cycle;Signal;HPM_P1;HPM_P2
2023/11/01 00:01:00;;;;;;;22.42;8.95;;;11.20;99.90;;;;;;5076669;28;20034;-68
2023/11/01 00:03:26;;;;;;;16.95;9.50;;;11.20;99.90;;;;;;5076864;28;20115;-68
2023/11/01 00:05:51;;;;;;;18.45;8.43;;;11.30;99.90;;;;;;5076612;28;20032;-68
2023/11/01 00:08:17;;;;;;;20.08;9.02;;;11.30;99.90;;;;;;5076395;28;20021;-68
2023/11/01 00:10:42;;;;;;;13.50;8.77;;;11.30;99.90;;;;;;5076326;28;20033;-68
2023/11/01 00:13:08;;;;;;;23.50;9.07;;;11.30;99.90;;;;;;5076129;28;20029;-68
2023/11/01 00:15:33;;;;;;;16.10;8.18;;;11.30;99.90;;;;;;5075944;28;20020;-68
2023/11/01 00:17:59;;;;;;;16.50;8.20;;;11.30;99.90;;;;;;5076271;28;20033;-68
2023/11/01 00:20:24;;;;;;;14.82;7.75;;;11.40;99.90;;;;;;5076348;28;20020;-68
2023/11/01 00:22:50;;;;;;;17.92;7.40;;;11.40;99.90;;;;;;5075376;28;20052;-68
2023/11/01 00:25:15;;;;;;;19.02;7.78;;;11.40;99.90;;;;;;5076226;28;20024;-69
2023/11/01 00:27:41;;;;;;;18.25;7.88;;;11.40;99.90;;;;;;5076073;28;20374;-68
2023/11/01 00:30:07;;;;;;;17.17;8.00;;;11.40;99.90;;;;;;5076048;28;20028;-68
2023/11/01 00:32:32;;;;;;;19.73;7.95;;;11.40;99.90;;;;;;5075811;28;20020;-68
2023/11/01 00:34:58;;;;;;;14.75;7.45;;;11.30;99.90;;;;;;5075859;28;20036;-68
2023/11/01 00:37:23;;;;;;;15.85;7.60;;;11.50;99.90;;;;;;5075569;28;20032;-68
2023/11/01 00:39:49;;;;;;;16.48;8.07;;;11.40;99.90;;;;;;5075408;28;20093;-68
2023/11/01 00:42:16;;;;;;;16.88;7.95;;;11.40;99.90;;;;;;5075492;28;20028;-68
2023/11/01 00:44:41;;;;;;;19.10;9.20;;;11.40;99.90;;;;;;5075481;28;20027;-68
2023/11/01 00:47:07;;;;;;;19.00;8.63;;;11.40;99.90;;;;;;5075188;28;20103;-68
2023/11/01 00:49:33;;;;;;;21.50;8.43;;;11.40;99.90;;;;;;5075194;28;20538;-68
2023/11/01 00:51:58;;;;;;;18.15;7.25;;;11.40;99.90;;;;;;5074984;28;20112;-68
2023/11/01 00:54:24;;;;;;;13.50;7.40;;;11.40;99.90;;;;;;5075822;28;20036;-68
2023/11/01 00:56:49;;;;;;;13.65;7.10;;;11.50;99.90;;;;;;5075489;28;20119;-68
2023/11/01 00:59:15;;;;;;;16.05;7.88;;;11.50;99.90;;;;;;5075243;28;20089;-68
2023/11/01 01:01:40;;;;;;;16.92;7.80;;;11.50;99.90;;;;;;5075433;28;20539;-68
2023/11/01 01:04:06;;;;;;;15.60;7.57;;;11.50;99.90;;;;;;5074944;28;20101;-68
2023/11/01 01:06:32;;;;;;;16.05;7.10;;;11.30;99.90;;;;;;5075418;28;20501;-68
2023/11/01 01:08:57;;;;;;;17.98;8.25;;;11.40;99.90;;;;;;5075509;28;20028;-68
2023/11/01 01:11:23;;;;;;;16.27;7.60;;;11.40;99.90;;;;;;5074916;28;20037;-68
2023/11/01 01:13:48;;;;;;;18.83;6.70;;;11.40;99.90;;;;;;5074899;28;20037;-68
2023/11/01 01:16:14;;;;;;;16.10;7.22;;;11.50;99.90;;;;;;5075016;28;20032;-68
2023/11/01 01:18:42;;;;;;;18.73;7.13;;;11.50;99.90;;;;;;5075326;28;20036;-68
2023/11/01 01:21:07;;;;;;;16.13;7.00;;;11.40;99.90;;;;;;5075116;28;20028;-68
2023/11/01 01:23:33;;;;;;;13.25;7.13;;;11.60;99.90;;;;;;5074115;28;20064;-68
2023/11/01 01:25:58;;;;;;;17.15;7.13;;;11.60;99.90;;;;;;5074668;28;20036;-68
2023/11/01 01:28:24;;;;;;;14.57;7.00;;;11.60;99.90;;;;;;5074763;28;20017;-68
2023/11/01 01:30:49;;;;;;;13.63;6.47;;;11.60;99.90;;;;;;5074317;28;20364;-68
2023/11/01 01:33:15;;;;;;;16.23;7.00;;;11.60;99.90;;;;;;5075068;28;20028;-68
2023/11/01 01:35:40;;;;;;;18.20;6.20;;;11.60;99.90;;;;;;5074965;28;20639;-68
2023/11/01 01:38:06;;;;;;;14.43;7.10;;;11.60;99.90;;;;;;5074174;28;20033;-68
2023/11/01 01:40:34;;;;;;;15.23;6.75;;;11.60;99.90;;;;;;5074851;28;20023;-68
2023/11/01 01:43:21;;;;;;;16.05;6.75;;;11.60;99.90;;;;;;5074847;28;20025;-68
2023/11/01 01:45:56;;;;;;;15.00;6.72;;;11.60;99.90;;;;;;5073181;28;20130;-68
2023/11/01 01:48:22;;;;;;;19.52;6.63;;;11.60;99.90;;;;;;5074760;28;20028;-68
2023/11/01 01:50:47;;;;;;;15.48;5.97;;;12.10;99.90;;;;;;5074421;28;20025;-68
2023/11/01 01:53:13;;;;;;;17.15;6.40;;;11.60;99.90;;;;;;5074227;28;20021;-68
2023/11/01 01:55:39;;;;;;;14.35;5.95;;;11.40;99.90;;;;;;5074144;28;20039;-68
2023/11/01 01:58:05;;;;;;;13.23;5.50;;;11.70;99.90;;;;;;5074123;28;20028;-68
2023/11/01 02:00:32;;;;;;;15.30;6.45;;;11.60;99.90;;;;;;5074625;28;20020;-68
2023/11/01 02:03:00;;;;;;;13.15;5.10;;;11.70;99.90;;;;;;5074525;28;20056;-68
2023/11/01 02:05:26;;;;;;;14.32;5.45;;;11.60;99.90;;;;;;5073887;28;20032;-68
2023/11/01 02:07:51;;;;;;;13.77;5.63;;;11.60;99.90;;;;;;5074291;28;20470;-68
2023/11/01 02:10:17;;;;;;;13.45;5.63;;;11.60;99.90;;;;;;5074190;28;20028;-68
2023/11/01 02:12:42;;;;;;;16.42;7.15;;;11.60;99.90;;;;;;5073884;28;20028;-68
2023/11/01 02:15:08;;;;;;;15.30;6.22;;;11.50;99.90;;;;;;5073857;28;20474;-69
2023/11/01 02:17:34;;;;;;;14.43;6.13;;;11.50;99.90;;;;;;5073913;28;20078;-68
2023/11/01 02:20:02;;;;;;;17.58;6.88;;;11.50;99.90;;;;;;5074353;28;20047;-68
2023/11/01 02:22:27;;;;;;;12.90;6.22;;;11.50;99.90;;;;;;5073583;28;20083;-68
2023/11/01 02:24:53;;;;;;;13.05;5.50;;;11.50;99.90;;;;;;5074399;28;20113;-68
2023/11/01 02:27:19;;;;;;;11.27;5.25;;;11.50;99.90;;;;;;5073497;28;20051;-68
2023/11/01 02:29:44;;;;;;;11.43;4.93;;;11.50;99.90;;;;;;5073836;28;20021;-68
2023/11/01 02:32:10;;;;;;;14.82;5.18;;;11.60;99.90;;;;;;5074072;28;20504;-68
2023/11/01 02:34:36;;;;;;;12.98;4.88;;;11.30;99.90;;;;;;5073858;28;20031;-68
2023/11/01 02:37:02;;;;;;;13.32;4.97;;;11.60;99.90;;;;;;5073635;28;20043;-69
2023/11/01 02:39:28;;;;;;;12.63;4.80;;;11.60;99.90;;;;;;5073904;28;20501;-68
2023/11/01 02:41:54;;;;;;;12.27;4.30;;;11.60;99.90;;;;;;5073518;28;20034;-69
2023/11/01 02:44:20;;;;;;;12.40;4.63;;;11.60;99.90;;;;;;5074023;28;20040;-73
2023/11/01 02:46:45;;;;;;;11.52;4.05;;;11.60;99.90;;;;;;5073842;28;20029;-68
2023/11/01 02:49:10;;;;;;;10.10;3.88;;;11.50;99.90;;;;;;5073354;28;20017;-69
2023/11/01 02:51:36;;;;;;;8.35;3.78;;;11.50;99.90;;;;;;5073519;28;20074;-69
2023/11/01 02:54:02;;;;;;;9.70;3.67;;;11.50;99.90;;;;;;5073377;28;20217;-69
2023/11/01 02:56:27;;;;;;;12.63;3.50;;;11.40;99.90;;;;;;5076435;28;20036;-69
2023/11/01 02:58:53;;;;;;;5.70;2.83;;;11.40;99.90;;;;;;5078064;28;20047;-69
2023/11/01 03:01:21;;;;;;;8.35;2.97;;;11.40;99.90;;;;;;5077376;28;20035;-69
2023/11/01 03:03:48;;;;;;;10.70;3.40;;;11.40;99.90;;;;;;5077478;28;20021;-69
2023/11/01 03:06:14;;;;;;;10.75;3.50;;;11.30;99.90;;;;;;5077147;28;20056;-69
2023/11/01 03:08:39;;;;;;;6.50;3.00;;;11.40;99.90;;;;;;5076846;28;20037;-69
2023/11/01 03:11:05;;;;;;;7.95;3.53;;;11.50;99.90;;;;;;5077642;28;20029;-69
2023/11/01 03:13:30;;;;;;;11.32;3.45;;;11.40;99.90;;;;;;5076915;28;20029;-69
2023/11/01 03:15:56;;;;;;;7.47;3.40;;;11.50;99.90;;;;;;5077159;28;20065;-69
2023/11/01 03:18:21;;;;;;;7.35;3.42;;;11.30;99.90;;;;;;5077661;28;20111;-69
2023/11/01 03:20:47;;;;;;;8.35;3.75;;;11.10;99.90;;;;;;5076933;28;20028;-69
2023/11/01 03:23:13;;;;;;;8.02;3.95;;;11.30;99.90;;;;;;5076484;28;20051;-69
2023/11/01 03:25:38;;;;;;;10.35;3.67;;;11.40;99.90;;;;;;5077008;28;20386;-68
2023/11/01 03:28:04;;;;;;;7.28;3.80;;;11.40;99.90;;;;;;5077483;28;20071;-69
2023/11/01 03:30:29;;;;;;;15.07;4.50;;;11.30;99.90;;;;;;5077102;28;20024;-69
2023/11/01 03:32:55;;;;;;;7.95;4.00;;;11.30;99.90;;;;;;5077018;28;20032;-69
2023/11/01 03:35:20;;;;;;;13.10;3.55;;;11.30;99.90;;;;;;5076669;28;20025;-69
2023/11/01 03:37:46;;;;;;;7.82;3.63;;;11.30;99.90;;;;;;5077317;28;20359;-68
2023/11/01 03:40:11;;;;;;;9.65;3.17;;;11.10;99.90;;;;;;5076669;28;20021;-69
2023/11/01 03:42:37;;;;;;;8.10;3.10;;;11.30;99.90;;;;;;5077175;28;20028;-69
2023/11/01 03:45:04;;;;;;;6.90;2.80;;;11.30;99.90;;;;;;5076513;28;20537;-69
2023/11/01 03:47:30;;;;;;;5.63;2.88;;;11.30;99.90;;;;;;5076840;28;20025;-70
2023/11/01 03:49:55;;;;;;;8.30;3.55;;;11.30;99.90;;;;;;5076072;28;20078;-69
2023/11/01 03:52:21;;;;;;;9.68;3.30;;;11.20;99.90;;;;;;5076824;28;20028;-69
2023/11/01 03:54:46;;;;;;;12.40;3.47;;;11.30;99.90;;;;;;5076272;28;20103;-69
2023/11/01 03:57:12;;;;;;;6.93;3.40;;;11.30;99.90;;;;;;5076608;28;20036;-69
2023/11/01 03:59:38;;;;;;;6.68;3.10;;;11.30;99.90;;;;;;5076102;28;20482;-69
2023/11/01 04:02:04;;;;;;;6.85;2.85;;;11.30;99.90;;;;;;5076917;28;20021;-69
2023/11/01 04:04:30;;;;;;;8.00;3.10;;;11.40;99.90;;;;;;5076866;28;20119;-69
2023/11/01 04:06:56;;;;;;;11.98;3.90;;;11.40;99.90;;;;;;5075645;28;20025;-69
2023/11/01 04:09:21;;;;;;;5.85;2.35;;;11.40;99.90;;;;;;5076457;28;20028;-69
2023/11/01 04:11:47;;;;;;;6.03;2.47;;;11.40;99.90;;;;;;5076136;28;20144;-69
2023/11/01 04:14:14;;;;;;;8.00;2.25;;;10.90;99.90;;;;;;5076475;28;20058;-69
2023/11/01 04:16:39;;;;;;;7.40;3.28;;;11.40;99.90;;;;;;5076335;28;20032;-69
2023/11/01 04:19:05;;;;;;;5.85;2.38;;;11.40;99.90;;;;;;5075965;28;20068;-69
2023/11/01 04:21:31;;;;;;;8.27;2.38;;;11.50;99.90;;;;;;5075825;28;20078;-70
2023/11/01 04:23:56;;;;;;;6.80;2.30;;;11.50;99.90;;;;;;5075875;28;20098;-69
2023/11/01 04:26:22;;;;;;;8.63;2.55;;;11.50;99.90;;;;;;5076281;28;20380;-69
2023/11/01 04:28:47;;;;;;;5.90;1.80;;;11.60;99.90;;;;;;5075967;28;20463;-69
2023/11/01 04:31:14;;;;;;;5.82;2.00;;;11.60;99.90;;;;;;5076294;28;20036;-69
2023/11/01 04:33:40;;;;;;;4.22;1.77;;;11.60;99.90;;;;;;5075711;28;20025;-69
2023/11/01 04:36:08;;;;;;;5.32;2.10;;;11.50;99.90;;;;;;5075991;28;20032;-69
2023/11/01 04:38:36;;;;;;;6.65;2.17;;;11.50;99.90;;;;;;5075996;28;20033;-69
2023/11/01 04:41:03;;;;;;;4.25;2.05;;;11.50;99.90;;;;;;5075894;28;20048;-69
2023/11/01 04:43:29;;;;;;;6.88;2.35;;;11.50;99.90;;;;;;5075852;28;20378;-70
2023/11/01 04:45:54;;;;;;;4.25;2.25;;;11.50;99.90;;;;;;5075592;28;20149;-70
2023/11/01 04:48:20;;;;;;;6.18;2.13;;;11.40;99.90;;;;;;5075731;28;20032;-70
2023/11/01 04:50:48;;;;;;;5.95;2.40;;;11.40;99.90;;;;;;5075229;28;20025;-69
2023/11/01 04:53:14;;;;;;;4.32;2.15;;;11.40;99.90;;;;;;5075434;28;20078;-69
2023/11/01 04:55:40;;;;;;;6.63;2.72;;;11.30;99.90;;;;;;5075470;28;20483;-71
2023/11/01 04:58:05;;;;;;;10.32;2.90;;;11.30;99.90;;;;;;5075268;28;20025;-68
2023/11/01 05:00:31;;;;;;;7.75;3.05;;;11.20;99.90;;;;;;5075575;28;20413;-68
2023/11/01 05:02:56;;;;;;;6.32;2.95;;;11.20;99.90;;;;;;5075492;28;20070;-68
2023/11/01 05:05:22;;;;;;;4.45;2.42;;;11.10;99.90;;;;;;5075362;28;20021;-68
2023/11/01 05:07:48;;;;;;;7.25;2.58;;;11.00;99.90;;;;;;5075337;28;20070;-68
2023/11/01 05:10:13;;;;;;;5.03;2.92;;;11.10;99.90;;;;;;5074545;28;20049;-68
2023/11/01 05:12:39;;;;;;;6.63;2.45;;;11.10;99.90;;;;;;5074898;28;20465;-68
2023/11/01 05:15:05;;;;;;;4.90;2.72;;;11.10;99.90;;;;;;5075183;28;20054;-68
2023/11/01 05:17:30;;;;;;;5.43;2.97;;;11.10;99.90;;;;;;5075374;28;20420;-68
2023/11/01 05:19:56;;;;;;;11.80;3.22;;;11.10;99.90;;;;;;5074505;28;20028;-68
2023/11/01 05:22:21;;;;;;;10.02;3.13;;;10.80;99.90;;;;;;5074391;28;20410;-68
2023/11/01 05:24:48;;;;;;;9.25;3.30;;;11.00;99.90;;;;;;5074482;28;20116;-68
2023/11/01 05:27:15;;;;;;;10.82;3.70;;;11.10;99.90;;;;;;5074862;28;20036;-68
2023/11/01 05:29:41;;;;;;;7.22;3.30;;;11.00;99.90;;;;;;5074966;28;20140;-68
2023/11/01 05:32:07;;;;;;;6.82;3.08;;;11.10;99.90;;;;;;5074688;28;20063;-68
2023/11/01 05:34:32;;;;;;;9.63;3.45;;;11.10;99.90;;;;;;5073353;28;20020;-68
2023/11/01 05:36:58;;;;;;;9.88;3.47;;;11.10;99.90;;;;;;5074541;28;20379;-68
2023/11/01 05:39:24;;;;;;;12.88;3.85;;;11.10;99.90;;;;;;5074915;28;20040;-72
2023/11/01 05:41:51;;;;;;;7.53;4.18;;;11.10;99.90;;;;;;5074430;28;20139;-67
2023/11/01 05:44:19;;;;;;;11.18;4.00;;;11.00;99.90;;;;;;5073844;28;20028;-67
2023/11/01 05:46:45;;;;;;;12.93;4.43;;;11.10;99.90;;;;;;5074016;28;20040;-67
2023/11/01 05:49:11;;;;;;;7.53;4.40;;;11.00;99.90;;;;;;5074172;28;20028;-67
2023/11/01 05:51:37;;;;;;;8.45;4.13;;;11.10;99.90;;;;;;5074298;28;20082;-67
2023/11/01 05:54:02;;;;;;;8.93;4.03;;;11.10;99.90;;;;;;5074681;28;20028;-68
2023/11/01 05:56:28;;;;;;;7.18;4.38;;;11.10;99.90;;;;;;5074542;28;20466;-67
2023/11/01 05:58:55;;;;;;;7.72;4.38;;;11.00;99.90;;;;;;5074230;28;20078;-68
2023/11/01 06:01:23;;;;;;;13.65;4.50;;;11.10;99.90;;;;;;5074128;28;20505;-68
2023/11/01 06:03:50;;;;;;;10.82;3.95;;;11.10;99.90;;;;;;5074077;28;20029;-68
2023/11/01 06:06:16;;;;;;;8.05;3.75;;;11.10;99.90;;;;;;5074132;28;20108;-68
2023/11/01 06:08:42;;;;;;;7.10;3.60;;;11.10;99.90;;;;;;5074340;28;20407;-68
2023/11/01 06:11:07;;;;;;;8.13;3.83;;;11.10;99.90;;;;;;5074305;28;20060;-68
2023/11/01 06:13:33;;;;;;;6.90;3.00;;;11.10;99.90;;;;;;5073902;28;20138;-68
2023/11/01 06:16:04;;;;;;;7.28;3.30;;;11.20;99.90;;;;;;5074415;28;20036;-68
2023/11/01 06:18:31;;;;;;;6.97;3.30;;;11.20;99.90;;;;;;5073814;28;20029;-67
2023/11/01 06:20:57;;;;;;;10.13;3.00;;;11.20;99.90;;;;;;5077480;28;20029;-69
2023/11/01 06:23:22;;;;;;;4.40;2.38;;;11.30;99.90;;;;;;5084589;28;20048;-69
2023/11/01 06:25:48;;;;;;;4.95;2.03;;;11.30;99.90;;;;;;5084678;28;20145;-68
2023/11/01 06:28:14;;;;;;;2.50;2.30;;;11.30;99.90;;;;;;5076545;28;20024;-69
2023/11/01 06:30:40;;;;;;;7.65;2.42;;;11.40;99.90;;;;;;5073225;28;20024;-68
2023/11/01 06:33:06;;;;;;;3.70;2.33;;;11.40;99.90;;;;;;5073802;28;20025;-68
2023/11/01 06:35:32;;;;;;;5.18;2.53;;;11.40;99.90;;;;;;5074249;28;20032;-68
2023/11/01 06:37:57;;;;;;;6.68;2.83;;;11.50;99.90;;;;;;5073929;28;20051;-68
2023/11/01 06:40:23;;;;;;;3.38;2.13;;;11.50;99.90;;;;;;5073988;28;20032;-68
2023/11/01 06:42:49;;;;;;;9.93;2.65;;;11.50;99.90;;;;;;5073879;28;20125;-68
2023/11/01 06:45:14;;;;;;;4.57;2.20;;;11.60;99.90;;;;;;5073751;28;20021;-67
2023/11/01 06:47:40;;;;;;;4.43;2.33;;;11.60;99.90;;;;;;5073765;28;20072;-67
2023/11/01 06:50:06;;;;;;;3.55;2.25;;;11.60;99.90;;;;;;5073555;28;20107;-68
2023/11/01 06:52:32;;;;;;;10.40;2.70;;;11.50;99.90;;;;;;5074128;28;20397;-68
2023/11/01 06:54:57;;;;;;;2.33;2.08;;;11.70;99.90;;;;;;5073798;28;20116;-68
2023/11/01 06:57:23;;;;;;;4.05;2.08;;;11.70;99.90;;;;;;5073472;28;20063;-68
2023/11/01 06:59:48;;;;;;;5.35;1.88;;;11.80;99.90;;;;;;5073404;28;20032;-68
2023/11/01 07:02:14;;;;;;;6.00;2.33;;;11.80;99.90;;;;;;5073985;28;20064;-68
2023/11/01 07:04:40;;;;;;;6.65;2.22;;;11.90;99.90;;;;;;5073924;28;20032;-68
2023/11/01 07:07:05;;;;;;;7.55;2.00;;;11.80;99.90;;;;;;5073117;28;20497;-68
2023/11/01 07:09:31;;;;;;;3.30;1.90;;;12.00;99.90;;;;;;5073647;28;20062;-69
2023/11/01 07:11:57;;;;;;;3.42;1.80;;;12.00;99.90;;;;;;5073737;28;20025;-68
2023/11/01 07:14:23;;;;;;;4.55;1.83;;;12.00;99.90;;;;;;5073266;28;20061;-68
2023/11/01 07:16:48;;;;;;;4.97;2.05;;;12.00;99.90;;;;;;5072804;28;20028;-68
2023/11/01 07:19:14;;;;;;;4.05;1.75;;;12.00;99.90;;;;;;5073528;28;20036;-69
2023/11/01 07:21:40;;;;;;;4.97;1.95;;;12.10;99.90;;;;;;5073278;28;20028;-69
2023/11/01 07:24:07;;;;;;;5.35;1.90;;;12.30;99.90;;;;;;5073722;28;20036;-69
2023/11/01 07:26:32;;;;;;;4.38;2.03;;;12.10;99.90;;;;;;5073252;28;20498;-69
2023/11/01 07:28:59;;;;;;;4.03;1.80;;;12.20;99.90;;;;;;5073273;28;20027;-69
2023/11/01 07:31:25;;;;;;;5.30;2.53;;;12.20;99.90;;;;;;5073131;28;20024;-69
2023/11/01 07:33:51;;;;;;;7.50;2.30;;;12.20;99.90;;;;;;5073134;28;20024;-69
2023/11/01 07:36:17;;;;;;;7.00;2.30;;;12.20;99.90;;;;;;5073401;28;20028;-69
2023/11/01 07:38:43;;;;;;;5.03;1.90;;;12.30;99.90;;;;;;5072886;28;20024;-69
2023/11/01 07:41:08;;;;;;;5.32;2.22;;;12.40;99.90;;;;;;5073574;28;20037;-68
2023/11/01 07:43:34;;;;;;;7.38;2.75;;;12.40;99.90;;;;;;5075193;28;20048;-68
2023/11/01 07:46:00;;;;;;;10.50;2.70;;;12.40;99.90;;;;;;5076601;28;20025;-68
2023/11/01 07:48:25;;;;;;;9.90;2.90;;;12.50;99.90;;;;;;5076152;28;20091;-69
2023/11/01 07:50:51;;;;;;;8.55;2.83;;;12.50;99.90;;;;;;5076642;28;20478;-69
2023/11/01 07:53:16;;;;;;;7.25;2.95;;;12.50;99.90;;;;;;5076627;28;20079;-68
2023/11/01 07:55:42;;;;;;;13.00;2.40;;;12.50;99.90;;;;;;5077044;28;20031;-69
2023/11/01 07:58:07;;;;;;;7.03;2.47;;;12.70;99.90;;;;;;5076668;28;20056;-69
2023/11/01 08:00:33;;;;;;;8.93;2.28;;;12.70;99.90;;;;;;5076727;28;20025;-68
2023/11/01 08:02:59;;;;;;;11.52;2.45;;;12.70;99.90;;;;;;5076139;28;20585;-69
2023/11/01 08:05:24;;;;;;;8.65;2.90;;;12.70;99.90;;;;;;5076631;28;20095;-69
2023/11/01 08:07:50;;;;;;;7.18;2.65;;;12.80;99.90;;;;;;5076495;28;20025;-69
2023/11/01 08:10:15;;;;;;;6.90;2.38;;;12.90;99.90;;;;;;5076055;28;20024;-68
2023/11/01 08:12:41;;;;;;;10.52;2.50;;;12.90;99.90;;;;;;5076716;28;20034;-69
2023/11/01 08:15:07;;;;;;;7.28;2.40;;;12.90;99.90;;;;;;5076351;28;20112;-69
2023/11/01 08:17:33;;;;;;;9.10;2.28;;;12.90;99.90;;;;;;5076633;28;20029;-69
2023/11/01 08:19:58;;;;;;;12.45;2.20;;;13.10;99.90;;;;;;5076041;28;20381;-69
2023/11/01 08:22:25;;;;;;;5.50;1.67;;;13.20;99.90;;;;;;5075839;28;20040;-69
2023/11/01 08:24:51;;;;;;;7.15;1.77;;;13.20;99.90;;;;;;5075246;28;20033;-69
2023/11/01 08:27:16;;;;;;;7.85;2.10;;;13.50;99.90;;;;;;5076106;28;20043;-69
2023/11/01 08:29:43;;;;;;;6.40;2.08;;;13.60;99.90;;;;;;5076261;28;20374;-69
2023/11/01 08:32:09;;;;;;;8.55;1.90;;;13.80;99.90;;;;;;5076176;28;20059;-69
2023/11/01 08:34:35;;;;;;;4.10;2.15;;;13.90;99.90;;;;;;5075474;28;20025;-73
2023/11/01 08:37:01;;;;;;;5.03;1.67;;;14.00;99.90;;;;;;5075485;28;20085;-69
2023/11/01 08:39:27;;;;;;;4.47;1.58;;;14.10;99.90;;;;;;5075846;28;20021;-69
2023/11/01 08:41:53;;;;;;;7.93;2.00;;;14.30;99.90;;;;;;5075565;28;20090;-68
2023/11/01 08:44:18;;;;;;;6.03;2.20;;;14.30;99.90;;;;;;5075781;28;20032;-69
2023/11/01 08:46:45;;;;;;;7.72;2.05;;;14.40;99.90;;;;;;5075260;28;20036;-69
2023/11/01 08:49:11;;;;;;;7.95;1.60;;;14.60;99.90;;;;;;5076033;28;20036;-69
2023/11/01 08:51:38;;;;;;;9.63;2.00;;;14.80;99.90;;;;;;5075233;28;20024;-69
2023/11/01 08:54:04;;;;;;;7.10;1.63;;;15.30;99.90;;;;;;5075227;28;20541;-69
2023/11/01 08:56:30;;;;;;;6.32;1.50;;;15.20;99.90;;;;;;5075663;28;20112;-69
2023/11/01 08:58:55;;;;;;;5.75;1.67;;;15.30;99.90;;;;;;5075631;28;20039;-69
2023/11/01 09:01:21;;;;;;;5.10;1.85;;;15.30;99.90;;;;;;5075282;28;20111;-68
2023/11/01 09:03:47;;;;;;;8.98;1.90;;;15.40;99.90;;;;;;5075632;28;20356;-69
2023/11/01 09:06:12;;;;;;;5.63;1.95;;;15.60;99.90;;;;;;5075268;28;20033;-69
2023/11/01 09:08:38;;;;;;;6.38;2.03;;;15.70;99.90;;;;;;5075369;28;20024;-69
2023/11/01 09:11:04;;;;;;;7.32;1.80;;;15.80;99.90;;;;;;5075077;28;20017;-69
2023/11/01 09:13:29;;;;;;;6.95;1.73;;;15.80;99.90;;;;;;5074862;28;20032;-68
2023/11/01 09:15:55;;;;;;;5.90;1.40;;;15.60;99.90;;;;;;5074898;28;20393;-69
2023/11/01 09:18:20;;;;;;;9.68;2.05;;;15.40;99.90;;;;;;5074447;28;20036;-69
2023/11/01 09:20:46;;;;;;;10.85;2.00;;;15.20;99.90;;;;;;5075029;28;20086;-68
2023/11/01 09:23:12;;;;;;;6.90;1.92;;;15.00;99.90;;;;;;5074307;28;20048;-69
2023/11/01 09:25:38;;;;;;;7.40;2.08;;;14.80;99.90;;;;;;5074835;28;20047;-69
2023/11/01 09:28:04;;;;;;;8.25;1.70;;;14.90;99.90;;;;;;5074288;28;20028;-68
2023/11/01 09:30:29;;;;;;;4.90;1.42;;;15.00;99.90;;;;;;5074801;28;20075;-69
2023/11/01 09:32:55;;;;;;;8.45;1.83;;;15.10;99.90;;;;;;5074589;28;20032;-69
2023/11/01 09:35:20;;;;;;;9.18;1.73;;;15.10;99.90;;;;;;5074057;28;20028;-69
2023/11/01 09:37:46;;;;;;;3.60;1.50;;;15.10;99.90;;;;;;5075034;28;20141;-68
2023/11/01 09:40:13;;;;;;;8.85;2.22;;;;;;;;;;5074236;28;20033;-69
2023/11/01 09:42:39;;;;;;;2.53;1.27;;;14.90;99.90;;;;;;5074472;28;20092;-69
2023/11/01 09:45:09;;;;;;;6.68;2.28;;;15.00;99.90;;;;;;5073633;28;20477;-69
2023/11/01 09:47:36;;;;;;;7.55;2.17;;;15.30;99.90;;;;;;5074317;28;20043;-68
2023/11/01 09:50:01;;;;;;;7.28;1.45;;;15.30;99.90;;;;;;5074146;28;20027;-69
2023/11/01 09:52:30;;;;;;;6.82;1.73;;;15.20;94.70;;;;;;5074725;28;20108;-68
2023/11/01 09:54:57;;;;;;;4.85;1.58;;;15.30;93.60;;;;;;5074221;28;20031;-69
2023/11/01 09:57:24;;;;;;;9.32;1.92;;;15.30;99.90;;;;;;5074627;28;20344;-68
2023/11/01 09:59:51;;;;;;;6.80;1.80;;;15.40;99.90;;;;;;5073880;28;20443;-69
2023/11/01 10:02:17;;;;;;;6.95;1.98;;;15.20;99.90;;;;;;5074341;28;20036;-69
2023/11/01 10:04:43;;;;;;;9.07;2.22;;;15.10;99.90;;;;;;5074295;28;20367;-69
2023/11/01 10:07:10;;;;;;;10.57;2.50;;;15.00;99.90;;;;;;5073749;28;20420;-70
2023/11/01 10:09:37;;;;;;;9.07;1.90;;;14.80;99.90;;;;;;5074474;28;20027;-68
2023/11/01 10:12:04;;;;;;;6.30;1.70;;;15.00;99.90;;;;;;5073834;28;20111;-69
2023/11/01 10:14:31;;;;;;;5.43;1.33;;;15.00;99.90;;;;;;5073480;28;20062;-69
2023/11/01 10:16:58;;;;;;;8.63;1.90;;;14.80;99.90;;;;;;5074169;28;20033;-69
2023/11/01 10:19:25;;;;;;;5.25;1.85;;;15.00;99.90;;;;;;5073777;28;20059;-68
2023/11/01 10:21:53;;;;;;;5.22;1.65;;;15.20;99.90;;;;;;5073579;28;20465;-69
2023/11/01 10:24:21;;;;;;;8.13;1.60;;;15.20;99.90;;;;;;5073562;28;20491;-69
2023/11/01 10:26:47;;;;;;;9.27;1.65;;;15.30;97.90;;;;;;5073523;28;20028;-70
2023/11/01 10:29:12;;;;;;;7.65;1.63;;;15.10;99.90;;;;;;5073910;28;20047;-69
2023/11/01 10:31:41;;;;;;;3.55;1.60;;;;;;;;;;5073931;28;20532;-70
2023/11/01 10:34:13;;;;;;;5.85;1.67;;;;;;;;;;5073354;28;20060;-69
2023/11/01 10:36:51;;;;;;;4.80;1.40;;;;;;;;;;5073795;28;20025;-69
2023/11/01 10:39:19;;;;;;;7.05;1.80;;;;;;;;;;5073906;28;20062;-70
2023/11/01 10:41:52;;;;;;;8.07;1.83;;;15.30;50.30;;;;;;5073906;28;20078;-69
2023/11/01 10:44:20;;;;;;;5.95;1.42;;;15.40;45.50;;;;;;5073226;28;20107;-70
2023/11/01 10:46:46;;;;;;;4.43;1.45;;;15.40;59.40;;;;;;5073950;28;20064;-69
2023/11/01 10:49:12;;;;;;;7.10;1.70;;;;;;;;;;5073697;28;20031;-69
2023/11/01 10:51:42;;;;;;;6.93;1.40;;;16.10;13.40;;;;;;5073588;28;20467;-70
2023/11/01 10:54:11;;;;;;;6.25;1.88;;;16.30;7.60;;;;;;5072736;28;20023;-69
2023/11/01 10:56:39;;;;;;;7.47;2.15;;;16.20;28.10;;;;;;5073734;28;20534;-69
2023/11/01 10:59:14;;;;;;;6.63;1.80;;;;;;;;;;5073991;28;20355;-70
2023/11/01 11:01:46;;;;;;;9.32;1.70;;;;;;;;;;5073611;28;20467;-69
2023/11/01 11:04:21;;;;;;;5.72;1.73;;;;;;;;;;5073910;28;20467;-70
2023/11/01 11:06:55;;;;;;;7.95;2.03;;;;;;;;;;5073473;28;20035;-69
2023/11/01 11:09:22;;;;;;;9.00;1.63;;;;;;;;;;5073385;28;20025;-69
2023/11/01 11:12:24;;;;;;;9.35;1.83;;;15.40;39.70;;;;;;5073586;28;20107;-70
2023/11/01 11:14:52;;;;;;;7.95;1.60;;;;;;;;;;5073121;28;20086;-69
2023/11/01 11:17:20;;;;;;;3.67;1.48;;;15.50;30.80;;;;;;5075513;28;20382;-70
2023/11/01 11:20:11;;;;;;;5.22;1.55;;;;;;;;;;5077619;28;20519;-69
2023/11/01 11:23:01;;;;;;;9.85;1.80;;;;;;;;;;5076183;28;20055;-69
2023/11/01 11:33:37;;;;;;;5.20;1.35;;;;;;;;;;5114568;27;1169354;-68
2023/11/01 11:38:51;;;;;;;7.20;1.88;;;15.70;14.90;;;;;;5111934;27;20442;-69
2023/11/01 11:41:21;;;;;;;6.55;1.60;;;15.70;1.00;;;;;;5111844;28;20059;-68
2023/11/01 11:44:08;;;;;;;8.30;1.90;;;15.80;7.90;;;;;;5111953;28;20028;-68
2023/11/01 11:46:36;;;;;;;7.00;1.70;;;;;;;;;;5111176;28;20024;-69
2023/11/01 11:49:03;;;;;;;8.68;1.40;;;15.80;1.00;;;;;;5111491;28;20028;-70
2023/11/01 11:51:33;;;;;;;8.60;1.63;;;;;;;;;;5111982;28;20082;-69
2023/11/01 11:54:08;;;;;;;5.22;1.27;;;15.70;1.00;;;;;;5111671;28;20059;-69
2023/11/01 11:56:34;;;;;;;7.78;1.63;;;16.10;1.00;;;;;;5111160;28;20062;-69
2023/11/01 11:59:01;;;;;;;7.53;1.50;;;;;;;;;;5111823;28;20446;-70
2023/11/01 12:01:27;;;;;;;8.25;2.00;;;16.50;1.00;;;;;;5111169;28;20066;-70
2023/11/01 12:03:58;;;;;;;6.70;1.40;;;;;;;;;;5111362;28;20024;-70
2023/11/01 12:06:26;;;;;;;6.60;1.60;;;;;;;;;;5111184;28;20028;-70
2023/11/01 12:08:56;;;;;;;5.38;1.55;;;;;;;;;;5111420;28;20026;-70
2023/11/01 12:11:28;;;;;;;9.57;1.83;;;16.40;1.00;;;;;;5110648;28;20058;-70
2023/11/01 12:13:54;;;;;;;3.78;1.35;;;16.40;1.00;;;;;;5111255;28;20024;-71
2023/11/01 12:16:29;;;;;;;6.72;1.50;;;16.00;1.00;;;;;;5110234;28;20069;-70
2023/11/01 12:19:13;;;;;;;7.40;1.67;;;;;;;;;;5111183;28;20466;-70
2023/11/01 12:21:44;;;;;;;4.78;1.63;;;16.10;1.00;;;;;;5110692;28;20032;-70
2023/11/01 12:24:14;;;;;;;7.15;1.60;;;;;;;;;;5111299;28;20077;-70
2023/11/01 12:27:04;;;;;;;10.05;1.60;;;15.70;1.00;;;;;;5110508;28;20020;-71
2023/11/01 12:29:34;;;;;;;6.43;1.77;;;;;;;;;;5110410;28;20108;-71
2023/11/01 12:32:06;;;;;;;8.18;1.90;;;15.60;1.00;;;;;;5110638;28;20031;-70
2023/11/01 12:34:33;;;;;;;8.20;1.80;;;;;;;;;;5111184;28;20020;-70
2023/11/01 12:37:01;;;;;;;4.40;1.63;;;;;;;;;;5110320;28;20048;-71
2023/11/01 12:39:27;;;;;;;8.18;1.80;;;15.70;1.00;;;;;;5110737;28;20077;-71
2023/11/01 12:41:54;;;;;;;7.57;1.85;;;;;;;;;;5110661;28;20465;-70
2023/11/01 12:44:23;;;;;;;7.47;1.83;;;;;;;;;;5110555;28;20501;-70
2023/11/01 12:46:49;;;;;;;8.40;1.73;;;15.60;1.00;;;;;;5110472;28;20020;-70
2023/11/01 12:49:14;;;;;;;6.68;1.98;;;15.80;1.00;;;;;;5101928;28;20107;-70
2023/11/01 12:51:41;;;;;;;8.55;2.03;;;;;;;;;;5096907;28;20024;-70
2023/11/01 12:54:08;;;;;;;5.43;1.58;;;;;;;;;;5096716;28;20058;-70
2023/11/01 12:56:36;;;;;;;8.60;1.83;;;15.60;1.00;;;;;;5097040;28;20020;-70
2023/11/01 12:59:03;;;;;;;6.70;2.15;;;;;;;;;;5096707;28;20100;-70
2023/11/01 13:01:30;;;;;;;6.72;2.00;;;;;;;;;;5096707;28;20032;-70
2023/11/01 13:03:57;;;;;;;5.18;1.92;;;;;;;;;;5096540;28;20089;-70